Aeroporto :
LOGIN :

Iscrizione | Disclaimer

   EN    FR    IT 

 










Sommario :    VFR   VFR Marginale   IFR   IFR Intensivo   IFR Molto Intensivo
Visibilità : 
Base nubi : 
>= 8 km
>= 3000ft
5 / 8 km
1000 / 3000 ft
1500m / 5 km
500 / 1000 ft
800 / 1500m
200 / 500 ft
< 800m
< 200 ft
Simboli :   Temporali  Nebbia  Neve Forte  Precipitazioni Forti  Vento > 20 kt
SIGMETs :   Varie  Temporali  Ghiacco  Turbolenza  Onda orograficha  Ceneri Vulcaniche






- Altitudine del aeroporto : 290 ft
- Codice IATA : LAI


LFRO - Lannion

ULTIMO METAR :
  • 231900Z AUTO 21007KT 9999 BKN020/// BKN027/// BKN037/// //////TCU 04/02 Q0992

METARs OBSOLETI :
  • 231830Z AUTO 18007KT 9999 FEW042/// SCT130/// BKN170/// //////CB 03/02 Q0992
  • 231800Z AUTO 21009KT 9999 SCT022/// BKN027/// BKN033/// //////TCU 04/02 Q0992
  • 231730Z AUTO 25008KT 220V280 9999 -RA SCT022/// BKN031/// BKN046/// //////TCU 04/02 Q0992
  • 231700Z AUTO 28008KT 9999 FEW018/// SCT052/// BKN072/// //////CB 04/02 Q0992
  • 231630Z AUTO 25006KT 210V290 9999 -RA FEW023/// BKN031/// BKN038/// //////CB 04/02 Q0992
  • 231600Z AUTO 27016G34KT 230V300 9999 3200 RA FEW020/// SCT052/// BKN180/// //////CB 04/00 Q0992
  • 231530Z AUTO 24010KT 9999 //////TCU 06/03 Q0991
  • 231500Z AUTO 24011KT 9999 FEW021 SCT058 06/03 Q0991
  • 231430Z AUTO 29012KT 260V320 9999 FEW011/// SCT016/// BKN021/// //////TCU 05/03 Q0991

Previsioni scadute.



MetMap, La meteo Aeronautica in un colpo d'occhio ! - Copyright ORBIFLY Dicembre 2007 - Disclaimer

ORBIFLY MET'MAP TEAM :

Programmazione e sviluppo : Alexandra Zaïnal
Concezione : Baudouin d'Aumeries
Supporto tecnico e logistico : Manuel Goepfert
Aiuto : Marc-Olivier Méhu
Aiuto per la traduzione : Arnaldo La Scala




FONTI E CREDITI :

   NOAA